Time;durP1;ratioP1;P1;durP2;ratioP2;P2;SDS_P1;SDS_P2;PMS_P1;PMS_P2;Temp;Humidity;BMP_temperature;BMP_pressure;BME280_temperature;BME280_humidity;BME280_pressure;Samples;Min_cycle;Max_cycle;Signal;HPM_P1;HPM_P2
2024/01/11 00:00:29;;;;;;;7.47;2.90;;;-2.20;31.70;;;;;;5031940;28;20281;-48
2024/01/11 00:02:55;;;;;;;1.75;1.65;;;-2.20;31.80;;;;;;5032113;28;20166;-46
2024/01/11 00:05:21;;;;;;;5.90;3.55;;;-2.20;31.70;;;;;;5032086;28;20186;-45
2024/01/11 00:07:47;;;;;;;9.98;4.05;;;-2.20;31.60;;;;;;5032577;28;20166;-42
2024/01/11 00:10:13;;;;;;;1.52;1.42;;;-2.20;31.50;;;;;;5031794;28;20285;-47
2024/01/11 00:12:39;;;;;;;3.53;2.25;;;-2.20;31.70;;;;;;5032045;28;20607;-43
2024/01/11 00:15:05;;;;;;;0.80;0.40;;;-2.20;32.30;;;;;;5031578;28;20198;-50
2024/01/11 00:17:31;;;;;;;0.80;0.40;;;-2.20;31.60;;;;;;5031916;28;20477;-44
2024/01/11 00:19:57;;;;;;;1.45;1.35;;;-2.20;31.50;;;;;;5031721;28;20687;-43
2024/01/11 00:22:23;;;;;;;3.73;3.43;;;-2.20;31.80;;;;;;5031905;28;20261;-47
2024/01/11 00:24:48;;;;;;;0.80;0.40;;;-2.20;31.60;;;;;;5031885;28;20236;-49
2024/01/11 00:27:14;;;;;;;2.60;2.40;;;-2.20;31.60;;;;;;5031815;28;20463;-43
2024/01/11 00:29:40;;;;;;;2.00;1.90;;;-2.20;31.60;;;;;;5031545;28;20205;-43
2024/01/11 00:32:06;;;;;;;8.30;2.07;;;-2.20;31.60;;;;;;5031664;28;20424;-48
2024/01/11 00:34:32;;;;;;;3.67;1.40;;;-2.20;31.40;;;;;;5031641;28;20613;-47
2024/01/11 00:36:58;;;;;;;0.93;0.68;;;-2.20;31.30;;;;;;5031646;28;20409;-42
2024/01/11 00:39:24;;;;;;;2.15;1.95;;;-2.20;31.40;;;;;;5031356;28;20331;-46
2024/01/11 00:41:51;;;;;;;1.33;1.23;;;-2.30;31.40;;;;;;5031626;28;20181;-48
2024/01/11 00:44:17;;;;;;;1.13;1.02;;;-2.30;31.40;;;;;;5031651;28;20417;-44
2024/01/11 00:46:43;;;;;;;2.78;1.90;;;-2.30;31.40;;;;;;5031649;28;20265;-42
2024/01/11 00:49:08;;;;;;;1.27;0.90;;;-2.30;31.30;;;;;;5031444;28;20257;-47
2024/01/11 00:51:34;;;;;;;2.63;2.43;;;-2.30;31.20;;;;;;5031621;28;20412;-42
2024/01/11 00:54:00;;;;;;;1.43;1.33;;;-2.40;31.10;;;;;;5032443;28;20198;-43
2024/01/11 00:56:27;;;;;;;2.67;2.47;;;-2.40;31.40;;;;;;5034019;28;20199;-45
2024/01/11 00:58:53;;;;;;;1.42;1.33;;;-2.50;31.60;;;;;;5033823;28;20928;-47
2024/01/11 01:01:18;;;;;;;2.65;1.40;;;-2.50;31.60;;;;;;5032909;28;20284;-43
2024/01/11 01:03:44;;;;;;;0.80;0.70;;;-2.50;31.40;;;;;;5031583;28;20217;-46
2024/01/11 01:06:10;;;;;;;0.70;0.30;;;-2.50;31.70;;;;;;5014497;28;20563;-46
2024/01/11 01:08:36;;;;;;;3.43;3.23;;;-2.50;31.70;;;;;;5032000;28;20421;-46
2024/01/11 01:11:02;;;;;;;2.70;2.47;;;-2.40;31.70;;;;;;5031328;28;20475;-43
2024/01/11 01:13:28;;;;;;;1.65;1.40;;;-2.50;31.60;;;;;;5031361;28;20440;-50
2024/01/11 01:15:53;;;;;;;3.67;2.93;;;-2.50;31.50;;;;;;5031258;28;20550;-43
2024/01/11 01:18:19;;;;;;;1.13;1.03;;;-2.50;31.60;;;;;;5031452;28;20223;-48
2024/01/11 01:20:45;;;;;;;1.20;1.10;;;-2.50;31.60;;;;;;5031065;28;20420;-49
2024/01/11 01:23:11;;;;;;;1.33;1.20;;;-2.50;31.70;;;;;;5031115;28;20409;-44
2024/01/11 01:25:37;;;;;;;0.80;0.60;;;-2.50;31.60;;;;;;5031288;28;20415;-45
2024/01/11 01:28:03;;;;;;;2.60;2.40;;;-2.50;31.40;;;;;;5034827;28;20427;-43
2024/01/11 01:30:28;;;;;;;2.95;2.75;;;-2.50;31.40;;;;;;5034790;28;20498;-42
2024/01/11 01:32:54;;;;;;;1.03;0.93;;;-2.60;31.40;;;;;;5034939;28;20664;-45
2024/01/11 01:35:20;;;;;;;10.60;5.37;;;-2.60;31.50;;;;;;5034696;28;20452;-49
2024/01/11 01:37:46;;;;;;;2.30;2.20;;;-2.60;31.40;;;;;;5034795;28;20413;-42
2024/01/11 01:40:12;;;;;;;1.00;0.90;;;-2.60;31.30;;;;;;5034513;28;20206;-45
2024/01/11 01:42:46;;;;;;;3.15;2.85;;;-2.60;31.40;;;;;;5034829;28;20173;-46
2024/01/11 01:45:12;;;;;;;1.08;0.88;;;-2.70;31.40;;;;;;5034762;28;20178;-48
2024/01/11 01:47:42;;;;;;;1.23;1.13;;;-2.80;31.50;;;;;;5016981;28;20174;-42
2024/01/11 01:50:09;;;;;;;0.80;0.45;;;-2.80;31.70;;;;;;5034241;28;20210;-48
2024/01/11 01:52:37;;;;;;;0.90;0.77;;;-2.80;31.80;;;;;;5034602;28;20587;-45
2024/01/11 01:55:22;;;;;;;1.02;0.93;;;-2.80;31.70;;;;;;5034425;28;20198;-45
2024/01/11 01:57:50;;;;;;;2.55;2.35;;;-2.80;31.80;;;;;;5034267;28;20189;-42
2024/01/11 02:00:16;;;;;;;1.00;0.80;;;-2.90;31.70;;;;;;5034124;28;20190;-45
2024/01/11 02:02:50;;;;;;;2.70;1.92;;;-2.90;32.00;;;;;;5034248;28;20174;-46
2024/01/11 02:05:17;;;;;;;1.83;1.73;;;-2.90;32.00;;;;;;5034352;28;20597;-45
2024/01/11 02:07:44;;;;;;;2.58;2.40;;;-2.90;32.00;;;;;;5034404;28;20232;-45
2024/01/11 02:10:10;;;;;;;3.10;1.17;;;-2.90;31.90;;;;;;5033989;28;20269;-46
2024/01/11 02:12:39;;;;;;;2.63;2.45;;;-2.90;31.90;;;;;;5034147;28;20260;-44
2024/01/11 02:15:05;;;;;;;1.05;0.82;;;-2.90;32.10;;;;;;5033866;28;20213;-48
2024/01/11 02:17:31;;;;;;;1.75;1.13;;;-3.00;32.00;;;;;;5034087;28;20202;-41
2024/01/11 02:19:57;;;;;;;0.95;0.82;;;-3.00;32.00;;;;;;5033815;28;20216;-46
2024/01/11 02:22:35;;;;;;;0.70;0.30;;;-3.00;32.00;;;;;;5034040;28;20178;-48
2024/01/11 02:25:00;;;;;;;2.75;2.55;;;-2.90;32.00;;;;;;5033937;28;20929;-42
2024/01/11 02:27:26;;;;;;;1.17;1.07;;;-3.00;32.00;;;;;;5033801;28;20256;-43
2024/01/11 02:30:10;;;;;;;0.80;0.50;;;-3.00;31.90;;;;;;5033506;28;20472;-47
2024/01/11 02:32:36;;;;;;;3.00;1.67;;;-2.90;32.00;;;;;;5033828;28;20946;-43
2024/01/11 02:35:03;;;;;;;1.00;0.90;;;-2.90;31.90;;;;;;5033818;28;20205;-47
2024/01/11 02:37:30;;;;;;;2.35;2.15;;;-2.90;31.90;;;;;;5033851;28;21119;-47
2024/01/11 02:39:56;;;;;;;2.45;2.05;;;-3.00;31.70;;;;;;5033204;28;20213;-44
2024/01/11 02:42:21;;;;;;;4.80;1.83;;;-3.00;31.70;;;;;;5033621;28;20758;-49
2024/01/11 02:44:47;;;;;;;0.80;0.57;;;-3.00;31.80;;;;;;5033649;28;20264;-43
2024/01/11 02:47:13;;;;;;;2.80;2.10;;;-3.00;31.80;;;;;;5033918;28;20259;-42
2024/01/11 02:49:39;;;;;;;2.63;2.43;;;-3.00;31.90;;;;;;5033333;28;20444;-47
2024/01/11 02:52:05;;;;;;;2.50;1.37;;;-3.00;31.80;;;;;;5033321;28;20209;-43
2024/01/11 02:54:31;;;;;;;0.70;0.30;;;-3.00;31.70;;;;;;5033224;28;20221;-46
2024/01/11 02:56:57;;;;;;;0.80;0.40;;;-3.00;31.70;;;;;;5033204;28;20628;-45
2024/01/11 02:59:23;;;;;;;1.73;1.23;;;-3.00;31.70;;;;;;5033180;28;20507;-42
2024/01/11 03:01:50;;;;;;;0.70;0.40;;;-3.00;31.80;;;;;;5033240;28;20906;-45
2024/01/11 03:04:16;;;;;;;0.80;0.50;;;-3.00;31.80;;;;;;5033196;28;20186;-48
2024/01/11 03:06:42;;;;;;;3.55;3.08;;;-3.00;31.70;;;;;;5033187;28;20170;-49
2024/01/11 03:09:08;;;;;;;1.73;1.27;;;-3.10;31.90;;;;;;5032746;28;20189;-45
2024/01/11 03:11:34;;;;;;;3.10;2.90;;;-3.10;31.80;;;;;;5033107;28;20421;-47
2024/01/11 03:14:00;;;;;;;3.20;1.90;;;-3.10;31.70;;;;;;5032941;28;20200;-43
2024/01/11 03:16:26;;;;;;;2.05;1.95;;;-3.10;31.70;;;;;;5033043;28;20475;-43
2024/01/11 03:18:51;;;;;;;2.43;1.67;;;-3.10;31.60;;;;;;5032960;28;20652;-46
2024/01/11 03:21:18;;;;;;;4.90;2.07;;;-3.10;31.70;;;;;;5032640;28;20508;-47
2024/01/11 03:23:43;;;;;;;0.80;0.57;;;-3.20;31.50;;;;;;5032783;28;20412;-43
2024/01/11 03:26:15;;;;;;;1.67;1.57;;;-3.30;31.60;;;;;;5032746;28;20659;-43
2024/01/11 03:28:41;;;;;;;1.20;1.10;;;-3.30;32.00;;;;;;5032797;28;20173;-48
2024/01/11 03:31:09;;;;;;;2.40;1.33;;;-3.30;32.00;;;;;;5032446;28;20198;-49
2024/01/11 03:33:35;;;;;;;1.05;0.90;;;-3.30;32.00;;;;;;5032931;28;20405;-44
2024/01/11 03:36:07;;;;;;;3.72;3.00;;;-3.30;32.20;;;;;;5033471;28;20205;-46
2024/01/11 03:38:33;;;;;;;3.00;1.65;;;-3.20;32.10;;;;;;5032707;28;20412;-47
2024/01/11 03:40:59;;;;;;;1.40;1.00;;;-3.20;31.90;;;;;;5032247;28;20571;-47
2024/01/11 03:43:25;;;;;;;5.33;2.40;;;-3.20;31.90;;;;;;5033339;28;20462;-44
2024/01/11 03:45:51;;;;;;;0.90;0.67;;;-3.20;32.00;;;;;;5032892;28;21021;-44
2024/01/11 03:48:16;;;;;;;2.30;1.33;;;-3.30;32.20;;;;;;5015156;28;20188;-48
2024/01/11 03:50:42;;;;;;;0.90;0.50;;;-3.30;32.10;;;;;;5032661;28;20555;-48
2024/01/11 03:53:08;;;;;;;4.07;3.30;;;-3.30;32.20;;;;;;5032691;28;20420;-43
2024/01/11 03:55:34;;;;;;;5.53;2.45;;;-3.30;32.00;;;;;;5032286;28;20456;-44
2024/01/11 03:58:00;;;;;;;1.23;1.13;;;-3.20;32.20;;;;;;5032150;28;20162;-45
2024/01/11 04:00:25;;;;;;;0.90;0.50;;;-3.10;32.30;;;;;;5032001;28;20435;-45
2024/01/11 04:02:51;;;;;;;0.70;0.30;;;-3.10;32.10;;;;;;5032285;28;20519;-43
2024/01/11 04:05:17;;;;;;;0.90;0.80;;;-3.20;32.00;;;;;;5004366;28;20222;-48
2024/01/11 04:07:43;;;;;;;0.80;0.60;;;-3.20;32.00;;;;;;5012421;28;20659;-47
2024/01/11 04:10:12;;;;;;;0.95;0.85;;;-3.20;31.90;;;;;;5012046;28;20195;-43
2024/01/11 04:12:37;;;;;;;3.53;1.90;;;-3.20;31.90;;;;;;5012326;28;20705;-44
2024/01/11 04:15:04;;;;;;;3.00;2.33;;;-3.20;31.80;;;;;;5012179;28;20288;-46
2024/01/11 04:17:29;;;;;;;0.80;0.50;;;-3.30;31.80;;;;;;5012406;28;20406;-48
2024/01/11 04:19:55;;;;;;;0.70;0.30;;;-3.40;31.80;;;;;;5011941;28;20202;-49
2024/01/11 04:22:21;;;;;;;2.70;2.50;;;-3.40;32.00;;;;;;5012156;28;20175;-44
2024/01/11 04:24:47;;;;;;;2.10;2.00;;;-3.40;32.20;;;;;;5012158;28;20551;-46
2024/01/11 04:27:12;;;;;;;4.20;1.40;;;-3.30;32.20;;;;;;5013634;28;20417;-47
2024/01/11 04:29:38;;;;;;;0.70;0.30;;;-3.30;32.10;;;;;;4996520;28;20679;-45
2024/01/11 04:32:04;;;;;;;3.27;2.47;;;-3.20;32.10;;;;;;5014249;28;20413;-42
2024/01/11 04:34:30;;;;;;;3.28;1.95;;;-3.30;32.20;;;;;;5012361;28;20190;-45
2024/01/11 04:36:56;;;;;;;1.60;1.30;;;-3.40;32.10;;;;;;5012021;28;20633;-48
2024/01/11 04:39:22;;;;;;;2.30;2.20;;;-3.40;32.20;;;;;;5011669;28;20207;-48
2024/01/11 04:41:47;;;;;;;0.80;0.60;;;-3.40;32.20;;;;;;5012046;28;20651;-44
2024/01/11 04:44:37;;;;;;;3.70;2.57;;;-3.40;32.40;;;;;;5012048;28;20182;-46
2024/01/11 04:47:03;;;;;;;1.10;1.00;;;-3.40;32.60;;;;;;4981542;28;20942;-42
2024/01/11 04:49:29;;;;;;;3.40;1.33;;;-3.50;32.90;;;;;;5011761;28;20202;-42
2024/01/11 04:51:54;;;;;;;1.13;1.02;;;-3.60;32.90;;;;;;5011836;28;20413;-48
2024/01/11 04:54:20;;;;;;;2.00;1.83;;;-3.60;33.10;;;;;;5011820;28;20198;-49
2024/01/11 04:56:46;;;;;;;0.90;0.73;;;-3.50;33.80;;;;;;5011814;28;20907;-43
2024/01/11 04:59:12;;;;;;;1.40;1.30;;;-3.40;32.90;;;;;;5011570;28;20804;-43
2024/01/11 05:01:37;;;;;;;1.33;1.23;;;-3.40;32.80;;;;;;5013215;28;20234;-49
2024/01/11 05:04:03;;;;;;;0.90;0.52;;;-3.30;32.50;;;;;;5015639;28;20441;-48
2024/01/11 05:06:30;;;;;;;1.70;1.60;;;-3.40;32.20;;;;;;5015753;28;20518;-42
2024/01/11 05:08:55;;;;;;;0.90;0.57;;;-3.40;32.30;;;;;;5015630;28;20410;-44
2024/01/11 05:11:24;;;;;;;2.70;1.87;;;-3.40;32.30;;;;;;5015343;28;20266;-44
2024/01/11 05:13:51;;;;;;;0.80;0.55;;;-3.50;32.20;;;;;;5015567;28;20171;-43
2024/01/11 05:16:35;;;;;;;0.70;0.30;;;-3.50;32.40;;;;;;5015353;28;20667;-47
2024/01/11 05:19:01;;;;;;;2.00;1.90;;;-3.50;32.90;;;;;;5015421;28;20257;-44
2024/01/11 05:21:27;;;;;;;1.33;1.17;;;-3.40;32.80;;;;;;5015391;28;20602;-43
2024/01/11 05:23:53;;;;;;;1.38;1.27;;;-3.40;32.60;;;;;;5015362;28;20171;-46
2024/01/11 05:26:20;;;;;;;0.80;0.47;;;-3.40;32.50;;;;;;5015335;28;20170;-47
2024/01/11 05:28:46;;;;;;;0.80;0.60;;;-3.30;32.70;;;;;;5015267;28;20567;-43
2024/01/11 05:31:17;;;;;;;0.80;0.35;;;-3.30;32.60;;;;;;5015007;28;20198;-45
2024/01/11 05:33:46;;;;;;;0.93;0.82;;;-3.30;32.70;;;;;;5015275;28;20193;-44
2024/01/11 05:36:12;;;;;;;8.63;2.35;;;-3.30;32.80;;;;;;5014939;28;20192;-44
2024/01/11 05:38:39;;;;;;;1.30;1.20;;;-3.30;32.80;;;;;;5015072;28;20179;-45
2024/01/11 05:41:05;;;;;;;0.70;0.32;;;-3.30;32.70;;;;;;5014746;28;20437;-44
2024/01/11 05:43:31;;;;;;;1.80;1.60;;;-3.20;32.80;;;;;;5014884;28;20178;-45
2024/01/11 05:45:56;;;;;;;2.90;2.70;;;-3.20;32.60;;;;;;5014853;28;20500;-46
2024/01/11 05:48:22;;;;;;;0.80;0.40;;;-3.20;32.70;;;;;;5015009;28;20928;-43
2024/01/11 05:50:48;;;;;;;2.60;2.43;;;-3.20;32.50;;;;;;5014659;28;20262;-45
2024/01/11 05:53:14;;;;;;;1.03;0.80;;;-3.20;32.60;;;;;;5014746;28;20433;-48
2024/01/11 05:55:40;;;;;;;1.43;1.33;;;-3.20;32.60;;;;;;5014755;28;20194;-44
2024/01/11 05:58:06;;;;;;;2.00;1.85;;;-3.20;32.60;;;;;;5014603;28;20417;-41
2024/01/11 06:00:32;;;;;;;4.70;2.80;;;-3.20;32.80;;;;;;5014485;28;20195;-47
2024/01/11 06:02:58;;;;;;;2.30;1.23;;;-3.10;32.90;;;;;;5014630;28;20474;-43
2024/01/11 06:05:25;;;;;;;1.38;1.27;;;-3.10;32.90;;;;;;5014661;28;20258;-43
2024/01/11 06:07:51;;;;;;;3.13;2.92;;;-3.10;32.90;;;;;;5014591;28;20174;-47
2024/01/11 06:10:17;;;;;;;1.83;1.73;;;-3.10;33.00;;;;;;5033560;28;20197;-44
2024/01/11 06:12:43;;;;;;;1.63;1.53;;;-3.10;32.90;;;;;;5033973;28;20413;-43
2024/01/11 06:15:09;;;;;;;2.95;2.72;;;-3.10;32.80;;;;;;5034069;28;20453;-47
2024/01/11 06:17:35;;;;;;;1.00;0.90;;;-3.10;32.70;;;;;;5034209;28;20170;-50
2024/01/11 06:20:01;;;;;;;2.13;0.95;;;-3.10;32.70;;;;;;5033806;28;20190;-44
2024/01/11 06:22:27;;;;;;;4.20;1.55;;;-3.10;32.50;;;;;;5034125;28;20208;-43
2024/01/11 06:24:53;;;;;;;0.80;0.43;;;-3.10;32.40;;;;;;5034074;28;20178;-47
2024/01/11 06:27:19;;;;;;;1.50;1.40;;;-3.20;32.50;;;;;;5033895;28;20428;-48
2024/01/11 06:29:45;;;;;;;3.77;3.47;;;-3.20;32.70;;;;;;5033719;28;20556;-43
2024/01/11 06:32:10;;;;;;;0.90;0.80;;;-3.20;32.80;;;;;;5033954;28;20435;-42
2024/01/11 06:34:36;;;;;;;0.93;0.73;;;-3.10;32.90;;;;;;5033796;28;20201;-46
2024/01/11 06:37:02;;;;;;;22.90;6.13;;;-3.20;32.80;;;;;;5033936;28;20459;-44
2024/01/11 06:39:29;;;;;;;2.10;1.90;;;-3.20;32.90;;;;;;5033468;28;20296;-46
2024/01/11 06:41:55;;;;;;;2.47;2.28;;;-3.10;32.80;;;;;;5033648;28;20499;-44
2024/01/11 06:44:21;;;;;;;2.20;1.67;;;-3.10;32.70;;;;;;5033781;28;20186;-42
2024/01/11 06:46:47;;;;;;;1.38;1.27;;;-3.10;32.80;;;;;;5033569;28;20178;-51
2024/01/11 06:49:13;;;;;;;0.70;0.30;;;-3.10;32.80;;;;;;5033404;28;20797;-43
2024/01/11 06:51:39;;;;;;;0.80;0.50;;;-3.10;32.70;;;;;;5034148;28;20416;-43
2024/01/11 06:54:04;;;;;;;1.53;1.43;;;-3.10;32.70;;;;;;5033682;28;20467;-46
2024/01/11 06:56:30;;;;;;;0.80;0.63;;;-3.10;32.70;;;;;;5033998;28;20424;-44
2024/01/11 06:58:56;;;;;;;0.70;0.33;;;-3.10;32.70;;;;;;5034141;28;20922;-42
2024/01/11 07:01:23;;;;;;;3.88;2.47;;;-3.10;32.70;;;;;;5033644;28;20805;-50
2024/01/11 07:03:49;;;;;;;2.35;1.15;;;-3.00;32.60;;;;;;5033484;28;20174;-41
2024/01/11 07:06:15;;;;;;;1.13;0.95;;;-3.00;32.70;;;;;;5033615;28;20208;-44
2024/01/11 07:08:41;;;;;;;0.90;0.50;;;-3.00;32.60;;;;;;5033445;28;20206;-47
2024/01/11 07:11:07;;;;;;;1.20;1.10;;;-3.00;32.80;;;;;;5033420;28;20444;-42
2024/01/11 07:13:33;;;;;;;2.38;2.17;;;-3.00;33.00;;;;;;5033112;28;20163;-43
2024/01/11 07:15:59;;;;;;;1.42;0.93;;;-2.90;33.10;;;;;;5032915;28;20291;-47
2024/01/11 07:18:28;;;;;;;1.00;0.88;;;-2.90;33.10;;;;;;5032964;28;20184;-42
2024/01/11 07:20:58;;;;;;;7.45;2.65;;;-2.90;33.20;;;;;;5032638;28;20277;-48
2024/01/11 07:23:24;;;;;;;1.10;0.95;;;-2.80;33.10;;;;;;5032506;28;20166;-44
2024/01/11 07:25:50;;;;;;;3.58;3.35;;;-2.80;33.20;;;;;;5032587;28;20207;-42
2024/01/11 07:28:17;;;;;;;14.93;3.45;;;-2.80;33.20;;;;;;5032716;28;20636;-45
2024/01/11 07:30:43;;;;;;;2.58;1.35;;;-2.70;33.40;;;;;;5032549;28;20659;-49
2024/01/11 07:33:09;;;;;;;2.15;2.05;;;-2.60;33.70;;;;;;5032705;28;20205;-45
2024/01/11 07:35:35;;;;;;;1.20;0.50;;;-2.50;33.60;;;;;;5032805;28;20294;-43
2024/01/11 07:38:01;;;;;;;4.93;4.68;;;-2.40;33.70;;;;;;5032467;28;20265;-43
2024/01/11 07:40:26;;;;;;;3.87;1.83;;;-2.20;33.40;;;;;;5027977;28;20301;-47
2024/01/11 07:42:53;;;;;;;3.13;2.83;;;-2.20;33.50;;;;;;5012926;28;20419;-44
2024/01/11 07:45:19;;;;;;;0.70;0.30;;;-2.20;33.40;;;;;;5012816;28;20867;-45
2024/01/11 07:47:44;;;;;;;0.80;0.47;;;-2.20;33.70;;;;;;5013040;28;20266;-47
2024/01/11 07:50:10;;;;;;;7.87;2.60;;;-2.10;33.70;;;;;;5014286;28;20524;-44
2024/01/11 07:52:36;;;;;;;0.80;0.47;;;-2.10;33.80;;;;;;5015076;28;20178;-47
2024/01/11 07:55:07;;;;;;;1.60;1.50;;;-2.10;33.60;;;;;;5012980;28;20207;-47
2024/01/11 07:57:37;;;;;;;0.80;0.52;;;-2.20;33.60;;;;;;5012564;28;20221;-44
2024/01/11 08:00:06;;;;;;;0.80;0.40;;;-2.10;33.70;;;;;;5012319;28;20244;-52
2024/01/11 08:02:33;;;;;;;0.95;0.77;;;-2.10;33.90;;;;;;5012614;28;20258;-41
2024/01/11 08:05:02;;;;;;;4.32;3.92;;;-2.10;33.80;;;;;;5012602;28;20206;-47
2024/01/11 08:07:28;;;;;;;3.60;3.40;;;-2.10;33.70;;;;;;5012443;28;20529;-45
2024/01/11 08:09:55;;;;;;;1.50;1.40;;;-2.00;33.90;;;;;;5012203;28;20249;-46
2024/01/11 08:12:21;;;;;;;0.80;0.40;;;-1.90;34.10;;;;;;5012374;28;20179;-46
2024/01/11 08:14:47;;;;;;;2.80;2.65;;;-1.80;34.20;;;;;;5012267;28;20290;-43
2024/01/11 08:17:13;;;;;;;2.45;2.22;;;-1.70;34.20;;;;;;5012220;28;20177;-50
2024/01/11 08:19:40;;;;;;;3.03;2.72;;;-1.60;34.30;;;;;;5012001;28;20190;-47
2024/01/11 08:22:06;;;;;;;6.85;3.00;;;-1.60;34.30;;;;;;5012154;28;20197;-44
2024/01/11 08:24:32;;;;;;;13.25;1.67;;;-1.50;34.10;;;;;;5012195;28;20648;-42
2024/01/11 08:26:58;;;;;;;1.02;0.93;;;-1.40;34.10;;;;;;5012252;28;20179;-44
2024/01/11 08:29:24;;;;;;;0.80;0.40;;;-1.30;34.00;;;;;;5012008;28;20203;-47
2024/01/11 08:31:50;;;;;;;0.93;0.80;;;-1.10;34.20;;;;;;5012122;28;20919;-45
2024/01/11 08:34:16;;;;;;;1.02;0.93;;;-1.00;34.20;;;;;;5011844;28;20457;-45
2024/01/11 08:36:42;;;;;;;1.15;1.05;;;-0.80;34.20;;;;;;5011967;28;20187;-44
2024/01/11 08:39:08;;;;;;;3.25;3.05;;;-0.70;34.10;;;;;;5011859;28;20596;-43
2024/01/11 08:41:40;;;;;;;0.80;0.43;;;-0.60;34.00;;;;;;5011948;28;20166;-50
2024/01/11 08:44:06;;;;;;;1.17;1.08;;;-0.40;34.10;;;;;;5011922;28;20403;-45
2024/01/11 08:46:35;;;;;;;1.48;1.38;;;-0.10;34.10;;;;;;5012081;28;20578;-44
2024/01/11 08:49:03;;;;;;;9.40;2.20;;;0.30;34.10;;;;;;5011799;28;20202;-52
2024/01/11 08:51:29;;;;;;;1.80;1.67;;;0.70;34.00;;;;;;5011789;28;20166;-42
2024/01/11 08:53:55;;;;;;;13.77;2.63;;;1.00;33.70;;;;;;5011846;28;20167;-46
2024/01/11 08:56:22;;;;;;;3.33;3.03;;;1.40;33.40;;;;;;5012095;28;20546;-49
2024/01/11 08:58:48;;;;;;;1.58;1.48;;;1.70;33.20;;;;;;5011867;28;20225;-49
2024/01/11 09:01:15;;;;;;;3.45;2.47;;;1.70;32.60;;;;;;5011421;28;20704;-45
2024/01/11 09:03:40;;;;;;;1.95;1.60;;;1.70;32.40;;;;;;5011765;28;20183;-46
2024/01/11 09:06:07;;;;;;;1.03;0.93;;;1.70;32.40;;;;;;5011787;28;20219;-49
2024/01/11 09:08:33;;;;;;;5.60;1.50;;;1.70;32.60;;;;;;5011802;28;20433;-42
2024/01/11 09:10:59;;;;;;;1.52;1.42;;;1.80;33.30;;;;;;5011499;28;20203;-46
2024/01/11 09:13:28;;;;;;;3.03;2.83;;;1.90;32.70;;;;;;5011754;28;20231;-43
2024/01/11 09:15:55;;;;;;;2.55;2.35;;;2.20;32.70;;;;;;5011556;28;20205;-45
2024/01/11 09:18:21;;;;;;;5.95;4.68;;;2.60;32.70;;;;;;5011614;28;20197;-47
2024/01/11 09:20:48;;;;;;;1.42;1.33;;;3.00;32.70;;;;;;5011368;28;20206;-43
2024/01/11 09:23:15;;;;;;;4.60;3.33;;;3.20;32.50;;;;;;5011658;28;20208;-42
2024/01/11 09:25:41;;;;;;;7.53;4.45;;;3.40;32.10;;;;;;5011591;28;20261;-50
2024/01/11 09:28:07;;;;;;;3.53;3.23;;;3.50;32.30;;;;;;5011536;28;20321;-43
2024/01/11 09:30:33;;;;;;;3.40;2.35;;;3.60;31.90;;;;;;5011222;28;21004;-48
2024/01/11 09:32:59;;;;;;;5.45;2.88;;;3.70;31.80;;;;;;5011464;28;20265;-45
2024/01/11 09:35:25;;;;;;;4.07;1.10;;;3.70;31.70;;;;;;5011523;28;20230;-44
2024/01/11 09:37:51;;;;;;;2.10;1.90;;;3.70;30.70;;;;;;5011615;28;20491;-50
2024/01/11 09:40:18;;;;;;;13.82;3.38;;;3.70;31.50;;;;;;5011117;28;20555;-42
2024/01/11 09:42:44;;;;;;;2.80;2.58;;;3.60;31.40;;;;;;5011474;28;20281;-48
2024/01/11 09:45:15;;;;;;;5.57;3.03;;;3.50;31.40;;;;;;5011201;28;20856;-44
2024/01/11 09:47:44;;;;;;;4.43;4.03;;;3.50;31.80;;;;;;5013026;28;20179;-43
2024/01/11 09:50:10;;;;;;;2.95;2.20;;;3.40;32.20;;;;;;4997063;28;20710;-45
2024/01/11 09:52:38;;;;;;;8.77;5.05;;;3.40;32.30;;;;;;5014891;28;20178;-49
2024/01/11 09:55:04;;;;;;;3.97;3.72;;;3.40;32.50;;;;;;5014661;28;20261;-48
2024/01/11 09:57:32;;;;;;;4.60;3.03;;;3.40;32.70;;;;;;5014865;28;20510;-42
2024/01/11 10:00:00;;;;;;;3.75;3.45;;;3.40;32.30;;;;;;5014505;28;20193;-44
2024/01/11 10:02:26;;;;;;;6.28;4.05;;;3.40;32.50;;;;;;5007066;28;20182;-49
2024/01/11 10:04:53;;;;;;;3.67;3.40;;;3.30;32.70;;;;;;5014823;28;20178;-48
2024/01/11 10:07:22;;;;;;;7.15;4.78;;;3.20;32.60;;;;;;5014546;28;20190;-46
2024/01/11 10:09:49;;;;;;;4.40;3.97;;;3.10;32.60;;;;;;4996959;28;20601;-46
2024/01/11 10:12:15;;;;;;;4.88;2.97;;;3.00;32.80;;;;;;5014537;28;20276;-45
2024/01/11 10:14:41;;;;;;;1.60;1.35;;;3.00;33.10;;;;;;5014433;28;20216;-48
2024/01/11 10:17:07;;;;;;;3.70;3.40;;;2.90;33.70;;;;;;5014372;28;20268;-45
2024/01/11 10:19:33;;;;;;;14.30;4.95;;;2.90;33.20;;;;;;5015979;28;20195;-47
2024/01/11 10:21:59;;;;;;;8.90;3.67;;;2.90;33.10;;;;;;5015798;28;21016;-52
2024/01/11 10:24:28;;;;;;;8.65;5.85;;;2.90;33.10;;;;;;5013171;28;21045;-47
2024/01/11 10:26:58;;;;;;;5.97;3.50;;;2.90;33.00;;;;;;5015804;28;20190;-44
2024/01/11 10:29:30;;;;;;;25.23;6.05;;;2.80;32.90;;;;;;5007558;28;20437;-45
2024/01/11 10:31:56;;;;;;;4.13;1.45;;;2.90;33.00;;;;;;5014353;28;20181;-47
2024/01/11 10:34:24;;;;;;;4.33;2.37;;;3.40;33.10;;;;;;5015068;28;20201;-43
2024/01/11 10:36:51;;;;;;;6.30;4.35;;;3.60;33.00;;;;;;5015428;28;20929;-42
2024/01/11 10:39:17;;;;;;;11.77;5.68;;;4.00;32.60;;;;;;5013573;28;20232;-45
2024/01/11 10:41:50;;;;;;;5.85;5.05;;;4.30;31.70;;;;;;5013943;28;20262;-43
2024/01/11 10:44:23;;;;;;;7.57;2.92;;;4.90;31.90;;;;;;5013703;28;20254;-45
2024/01/11 10:46:50;;;;;;;9.70;4.95;;;5.20;31.30;;;;;;5013928;28;20171;-49
2024/01/11 10:49:18;;;;;;;16.30;6.18;;;5.60;31.40;;;;;;5013542;28;20261;-44
2024/01/11 10:52:00;;;;;;;13.52;6.38;;;6.00;29.40;;;;;;5013983;28;20529;-48
2024/01/11 10:54:28;;;;;;;19.25;7.65;;;6.40;28.00;;;;;;5013804;28;20228;-44
2024/01/11 10:56:56;;;;;;;5.15;3.20;;;6.70;28.20;;;;;;5013609;28;20175;-49
2024/01/11 10:59:25;;;;;;;6.50;5.90;;;6.80;28.10;;;;;;5012098;28;20246;-45
2024/01/11 11:01:55;;;;;;;21.88;7.88;;;6.70;27.30;;;;;;5020727;28;20535;-42
2024/01/11 11:04:22;;;;;;;9.27;4.80;;;6.50;27.50;;;;;;5033176;28;20265;-48
2024/01/11 11:06:51;;;;;;;22.42;8.13;;;6.20;27.50;;;;;;5033355;28;20177;-43
2024/01/11 11:09:18;;;;;;;7.80;6.97;;;6.00;27.50;;;;;;5032961;28;20189;-45
2024/01/11 11:11:45;;;;;;;11.77;7.40;;;5.80;28.30;;;;;;5033564;28;20181;-46
2024/01/11 11:14:15;;;;;;;5.45;4.88;;;5.70;28.70;;;;;;5033729;28;20178;-44
2024/01/11 11:16:42;;;;;;;3.63;2.88;;;5.60;28.90;;;;;;5034551;28;20249;-44
2024/01/11 11:19:08;;;;;;;5.90;4.97;;;5.70;29.10;;;;;;5033487;28;20261;-47
2024/01/11 11:21:43;;;;;;;8.95;5.75;;;5.70;29.30;;;;;;5032896;28;20224;-45
2024/01/11 11:24:10;;;;;;;16.45;4.22;;;5.80;29.10;;;;;;5023432;28;20175;-43
2024/01/11 11:26:37;;;;;;;12.25;8.85;;;5.90;28.60;;;;;;4995512;28;20167;-49
2024/01/11 11:29:05;;;;;;;19.35;9.02;;;5.90;29.00;;;;;;5029578;28;20229;-44
2024/01/11 11:31:59;;;;;;;9.15;3.30;;;5.90;28.60;;;;;;5032988;28;20170;-42
2024/01/11 11:34:52;;;;;;;6.13;5.60;;;6.20;29.30;;;;;;5029265;28;20633;-47
2024/01/11 11:37:29;;;;;;;5.53;4.05;;;6.40;29.00;;;;;;5029067;28;20551;-48
2024/01/11 11:39:57;;;;;;;7.55;4.45;;;6.50;28.50;;;;;;5014591;28;20300;-43
2024/01/11 11:42:24;;;;;;;7.95;4.55;;;6.70;28.30;;;;;;5032551;28;20177;-44
2024/01/11 11:44:51;;;;;;;7.03;3.97;;;6.90;28.10;;;;;;5032421;28;20178;-48
2024/01/11 11:47:22;;;;;;;13.68;7.30;;;7.10;27.90;;;;;;5032372;28;20898;-48
2024/01/11 11:50:06;;;;;;;5.35;2.97;;;7.20;27.30;;;;;;5032210;28;20198;-43
2024/01/11 11:52:38;;;;;;;18.13;8.18;;;7.30;27.40;;;;;;5005524;28;20530;-48
2024/01/11 11:55:06;;;;;;;5.80;5.10;;;7.30;26.70;;;;;;5012465;28;20234;-43
2024/01/11 11:57:32;;;;;;;10.18;6.40;;;7.30;26.90;;;;;;5012573;28;20171;-51
2024/01/11 11:59:59;;;;;;;11.70;6.72;;;7.10;26.30;;;;;;5012394;28;20194;-50
2024/01/11 12:02:26;;;;;;;9.45;6.43;;;7.00;26.10;;;;;;5012490;28;20225;-43
2024/01/11 12:04:53;;;;;;;12.20;6.07;;;6.80;26.70;;;;;;5012515;28;20178;-43
2024/01/11 12:07:21;;;;;;;8.45;5.82;;;6.80;26.90;;;;;;5012393;28;20229;-48
2024/01/11 12:09:47;;;;;;;3.60;2.22;;;6.60;26.10;;;;;;5011897;28;20241;-45
2024/01/11 12:12:13;;;;;;;22.43;6.07;;;6.50;26.20;;;;;;5012226;28;20187;-44
2024/01/11 12:14:39;;;;;;;6.35;4.05;;;6.40;26.50;;;;;;5012198;28;20962;-47
2024/01/11 12:17:07;;;;;;;24.48;8.75;;;6.30;26.10;;;;;;5012138;28;20206;-43
2024/01/11 12:19:33;;;;;;;6.97;3.35;;;6.30;26.50;;;;;;5012030;28;20190;-45
2024/01/11 12:21:59;;;;;;;7.33;4.70;;;6.30;26.80;;;;;;5012278;28;20211;-47
2024/01/11 12:24:26;;;;;;;3.28;2.85;;;6.30;26.60;;;;;;5012278;28;20463;-45
2024/01/11 12:26:53;;;;;;;3.92;3.40;;;6.30;26.40;;;;;;5012183;28;20657;-44
2024/01/11 12:29:20;;;;;;;6.53;4.40;;;6.30;26.00;;;;;;5014483;28;20182;-47
2024/01/11 12:31:46;;;;;;;8.38;5.00;;;6.30;26.50;;;;;;5031682;28;20182;-46
2024/01/11 12:34:13;;;;;;;17.17;6.67;;;6.30;26.20;;;;;;5013908;28;20193;-44
2024/01/11 12:36:39;;;;;;;10.65;6.90;;;6.30;25.70;;;;;;5031741;28;20968;-46
2024/01/11 12:39:06;;;;;;;7.88;5.40;;;6.20;25.40;;;;;;5014624;28;20225;-47
2024/01/11 12:41:33;;;;;;;13.95;6.22;;;6.20;26.10;;;;;;5011929;28;20228;-45
2024/01/11 12:43:59;;;;;;;7.53;3.83;;;6.10;25.50;;;;;;5012075;28;20186;-43
2024/01/11 12:46:25;;;;;;;7.95;6.30;;;6.00;26.20;;;;;;5011828;28;20285;-52